sensor_id;sensor_type;location;lat;lon;timestamp;P1;durP1;ratioP1;P2;durP2;ratioP2
17564;SDS011;62994;52.126;5.596;2023-11-18T00:00:46;32.13;;;16.45;;
17564;SDS011;62994;52.126;5.596;2023-11-18T00:03:13;31.48;;;17.25;;
17564;SDS011;62994;52.126;5.596;2023-11-18T00:05:40;29.92;;;16.17;;
17564;SDS011;62994;52.126;5.596;2023-11-18T00:08:08;29.83;;;15.50;;
17564;SDS011;62994;52.126;5.596;2023-11-18T00:10:35;30.75;;;16.08;;
17564;SDS011;62994;52.126;5.596;2023-11-18T00:13:02;27.77;;;16.85;;
17564;SDS011;62994;52.126;5.596;2023-11-18T00:15:29;26.50;;;15.65;;
17564;SDS011;62994;52.126;5.596;2023-11-18T00:17:59;34.92;;;17.25;;
17564;SDS011;62994;52.126;5.596;2023-11-18T00:20:26;29.13;;;16.15;;
17564;SDS011;62994;52.126;5.596;2023-11-18T00:22:55;32.60;;;16.80;;
17564;SDS011;62994;52.126;5.596;2023-11-18T00:25:24;33.00;;;15.93;;
17564;SDS011;62994;52.126;5.596;2023-11-18T00:27:51;33.38;;;15.63;;
17564;SDS011;62994;52.126;5.596;2023-11-18T00:30:18;35.08;;;15.98;;
17564;SDS011;62994;52.126;5.596;2023-11-18T00:32:44;36.38;;;16.70;;
17564;SDS011;62994;52.126;5.596;2023-11-18T00:35:11;26.40;;;14.75;;
17564;SDS011;62994;52.126;5.596;2023-11-18T00:37:39;33.38;;;16.35;;
17564;SDS011;62994;52.126;5.596;2023-11-18T00:40:07;31.52;;;16.60;;
17564;SDS011;62994;52.126;5.596;2023-11-18T00:42:36;31.17;;;15.23;;
17564;SDS011;62994;52.126;5.596;2023-11-18T00:45:03;27.17;;;16.20;;
17564;SDS011;62994;52.126;5.596;2023-11-18T00:47:31;29.27;;;16.05;;
17564;SDS011;62994;52.126;5.596;2023-11-18T00:49:58;29.13;;;15.98;;
17564;SDS011;62994;52.126;5.596;2023-11-18T00:52:27;31.90;;;16.95;;
17564;SDS011;62994;52.126;5.596;2023-11-18T00:54:58;36.85;;;16.85;;
17564;SDS011;62994;52.126;5.596;2023-11-18T00:57:25;26.02;;;15.60;;
17564;SDS011;62994;52.126;5.596;2023-11-18T00:59:54;32.60;;;17.35;;
17564;SDS011;62994;52.126;5.596;2023-11-18T01:02:21;26.95;;;16.00;;
17564;SDS011;62994;52.126;5.596;2023-11-18T01:04:48;31.77;;;16.52;;
17564;SDS011;62994;52.126;5.596;2023-11-18T01:07:15;27.55;;;15.05;;
17564;SDS011;62994;52.126;5.596;2023-11-18T01:09:42;30.52;;;15.88;;
17564;SDS011;62994;52.126;5.596;2023-11-18T01:12:09;26.67;;;16.35;;
17564;SDS011;62994;52.126;5.596;2023-11-18T01:14:37;31.70;;;16.90;;
17564;SDS011;62994;52.126;5.596;2023-11-18T01:17:05;27.13;;;15.70;;
17564;SDS011;62994;52.126;5.596;2023-11-18T01:19:34;26.63;;;15.32;;
17564;SDS011;62994;52.126;5.596;2023-11-18T01:22:01;24.75;;;15.70;;
17564;SDS011;62994;52.126;5.596;2023-11-18T01:24:30;25.92;;;15.65;;
17564;SDS011;62994;52.126;5.596;2023-11-18T01:27:02;28.35;;;15.60;;
17564;SDS011;62994;52.126;5.596;2023-11-18T01:29:29;30.88;;;16.20;;
17564;SDS011;62994;52.126;5.596;2023-11-18T01:31:56;32.40;;;16.58;;
17564;SDS011;62994;52.126;5.596;2023-11-18T01:34:24;28.88;;;16.50;;
17564;SDS011;62994;52.126;5.596;2023-11-18T01:36:53;25.52;;;15.20;;
17564;SDS011;62994;52.126;5.596;2023-11-18T01:39:20;31.08;;;18.50;;
17564;SDS011;62994;52.126;5.596;2023-11-18T01:41:47;26.40;;;16.00;;
17564;SDS011;62994;52.126;5.596;2023-11-18T01:44:14;26.60;;;15.68;;
17564;SDS011;62994;52.126;5.596;2023-11-18T01:46:42;27.80;;;16.73;;
17564;SDS011;62994;52.126;5.596;2023-11-18T01:49:10;28.05;;;16.10;;
17564;SDS011;62994;52.126;5.596;2023-11-18T01:51:40;31.77;;;17.05;;
17564;SDS011;62994;52.126;5.596;2023-11-18T01:54:07;30.92;;;17.35;;
17564;SDS011;62994;52.126;5.596;2023-11-18T01:56:37;29.73;;;17.80;;
17564;SDS011;62994;52.126;5.596;2023-11-18T01:59:04;32.63;;;16.95;;
17564;SDS011;62994;52.126;5.596;2023-11-18T02:01:34;36.47;;;18.83;;
17564;SDS011;62994;52.126;5.596;2023-11-18T02:04:01;29.05;;;17.80;;
17564;SDS011;62994;52.126;5.596;2023-11-18T02:06:30;34.13;;;17.17;;
17564;SDS011;62994;52.126;5.596;2023-11-18T02:08:59;31.20;;;16.83;;
17564;SDS011;62994;52.126;5.596;2023-11-18T02:11:28;28.77;;;16.63;;
17564;SDS011;62994;52.126;5.596;2023-11-18T02:14:00;30.73;;;16.95;;
17564;SDS011;62994;52.126;5.596;2023-11-18T02:16:29;34.92;;;17.73;;
17564;SDS011;62994;52.126;5.596;2023-11-18T02:18:57;29.58;;;16.40;;
17564;SDS011;62994;52.126;5.596;2023-11-18T02:21:26;31.63;;;17.33;;
17564;SDS011;62994;52.126;5.596;2023-11-18T02:23:53;33.15;;;17.13;;
17564;SDS011;62994;52.126;5.596;2023-11-18T02:26:22;35.90;;;16.77;;
17564;SDS011;62994;52.126;5.596;2023-11-18T02:28:50;32.35;;;15.90;;
17564;SDS011;62994;52.126;5.596;2023-11-18T02:31:20;31.60;;;17.45;;
17564;SDS011;62994;52.126;5.596;2023-11-18T02:33:53;33.88;;;17.67;;
17564;SDS011;62994;52.126;5.596;2023-11-18T02:36:29;39.13;;;19.42;;
17564;SDS011;62994;52.126;5.596;2023-11-18T02:39:03;29.67;;;17.08;;
17564;SDS011;62994;52.126;5.596;2023-11-18T02:41:34;29.05;;;16.73;;
17564;SDS011;62994;52.126;5.596;2023-11-18T02:44:02;29.15;;;16.50;;
17564;SDS011;62994;52.126;5.596;2023-11-18T02:46:34;38.17;;;18.17;;
17564;SDS011;62994;52.126;5.596;2023-11-18T02:49:01;34.55;;;18.05;;
17564;SDS011;62994;52.126;5.596;2023-11-18T02:51:28;28.10;;;16.23;;
17564;SDS011;62994;52.126;5.596;2023-11-18T02:53:56;28.17;;;15.55;;
17564;SDS011;62994;52.126;5.596;2023-11-18T02:56:23;32.45;;;17.23;;
17564;SDS011;62994;52.126;5.596;2023-11-18T02:58:51;34.88;;;18.35;;
17564;SDS011;62994;52.126;5.596;2023-11-18T03:01:18;34.15;;;17.90;;
17564;SDS011;62994;52.126;5.596;2023-11-18T03:03:45;31.98;;;18.00;;
17564;SDS011;62994;52.126;5.596;2023-11-18T03:06:12;31.33;;;17.35;;
17564;SDS011;62994;52.126;5.596;2023-11-18T03:08:39;32.22;;;16.98;;
17564;SDS011;62994;52.126;5.596;2023-11-18T03:11:06;32.67;;;17.60;;
17564;SDS011;62994;52.126;5.596;2023-11-18T03:13:34;40.33;;;21.67;;
17564;SDS011;62994;52.126;5.596;2023-11-18T03:16:05;37.65;;;19.52;;
17564;SDS011;62994;52.126;5.596;2023-11-18T03:18:36;33.80;;;17.38;;
17564;SDS011;62994;52.126;5.596;2023-11-18T03:21:05;35.85;;;18.15;;
17564;SDS011;62994;52.126;5.596;2023-11-18T03:23:32;35.25;;;18.00;;
17564;SDS011;62994;52.126;5.596;2023-11-18T03:25:59;29.40;;;16.52;;
17564;SDS011;62994;52.126;5.596;2023-11-18T03:28:26;27.67;;;16.55;;
17564;SDS011;62994;52.126;5.596;2023-11-18T03:30:53;30.70;;;16.90;;
17564;SDS011;62994;52.126;5.596;2023-11-18T03:33:21;37.92;;;17.67;;
17564;SDS011;62994;52.126;5.596;2023-11-18T03:35:48;32.90;;;16.23;;
17564;SDS011;62994;52.126;5.596;2023-11-18T03:38:15;41.15;;;16.67;;
17564;SDS011;62994;52.126;5.596;2023-11-18T03:40:43;26.98;;;16.27;;
17564;SDS011;62994;52.126;5.596;2023-11-18T03:43:11;33.58;;;16.85;;
17564;SDS011;62994;52.126;5.596;2023-11-18T03:45:38;36.80;;;18.02;;
17564;SDS011;62994;52.126;5.596;2023-11-18T03:48:06;34.08;;;16.80;;
17564;SDS011;62994;52.126;5.596;2023-11-18T03:50:34;34.05;;;17.20;;
17564;SDS011;62994;52.126;5.596;2023-11-18T03:53:01;33.47;;;18.27;;
17564;SDS011;62994;52.126;5.596;2023-11-18T03:55:28;31.25;;;17.02;;
17564;SDS011;62994;52.126;5.596;2023-11-18T03:57:56;32.00;;;17.73;;
17564;SDS011;62994;52.126;5.596;2023-11-18T04:00:23;33.22;;;17.13;;
17564;SDS011;62994;52.126;5.596;2023-11-18T04:02:54;36.17;;;17.88;;
17564;SDS011;62994;52.126;5.596;2023-11-18T04:05:22;29.40;;;16.17;;
17564;SDS011;62994;52.126;5.596;2023-11-18T04:07:50;32.15;;;17.00;;
17564;SDS011;62994;52.126;5.596;2023-11-18T04:10:17;40.53;;;17.70;;
17564;SDS011;62994;52.126;5.596;2023-11-18T04:12:45;37.20;;;18.23;;
17564;SDS011;62994;52.126;5.596;2023-11-18T04:15:13;38.78;;;18.48;;
17564;SDS011;62994;52.126;5.596;2023-11-18T04:17:40;39.05;;;18.90;;
17564;SDS011;62994;52.126;5.596;2023-11-18T04:20:10;42.72;;;18.40;;
17564;SDS011;62994;52.126;5.596;2023-11-18T04:22:38;38.25;;;18.80;;
17564;SDS011;62994;52.126;5.596;2023-11-18T04:25:08;45.33;;;19.77;;
17564;SDS011;62994;52.126;5.596;2023-11-18T04:27:35;40.88;;;17.67;;
17564;SDS011;62994;52.126;5.596;2023-11-18T04:30:02;37.58;;;18.92;;
17564;SDS011;62994;52.126;5.596;2023-11-18T04:32:30;36.40;;;18.30;;
17564;SDS011;62994;52.126;5.596;2023-11-18T04:34:58;37.72;;;18.40;;
17564;SDS011;62994;52.126;5.596;2023-11-18T04:37:31;38.15;;;19.48;;
17564;SDS011;62994;52.126;5.596;2023-11-18T04:39:59;41.17;;;20.67;;
17564;SDS011;62994;52.126;5.596;2023-11-18T04:42:28;38.70;;;18.38;;
17564;SDS011;62994;52.126;5.596;2023-11-18T04:44:55;42.28;;;19.58;;
17564;SDS011;62994;52.126;5.596;2023-11-18T04:47:22;47.30;;;20.40;;
17564;SDS011;62994;52.126;5.596;2023-11-18T04:49:50;39.22;;;19.27;;
17564;SDS011;62994;52.126;5.596;2023-11-18T04:52:17;41.95;;;18.77;;
17564;SDS011;62994;52.126;5.596;2023-11-18T04:54:45;41.35;;;18.48;;
17564;SDS011;62994;52.126;5.596;2023-11-18T04:57:13;47.15;;;20.05;;
17564;SDS011;62994;52.126;5.596;2023-11-18T04:59:41;48.20;;;20.10;;
17564;SDS011;62994;52.126;5.596;2023-11-18T05:02:08;43.28;;;20.63;;
17564;SDS011;62994;52.126;5.596;2023-11-18T05:04:35;40.28;;;20.40;;
17564;SDS011;62994;52.126;5.596;2023-11-18T05:07:02;42.97;;;20.45;;
17564;SDS011;62994;52.126;5.596;2023-11-18T05:09:31;41.53;;;21.52;;
17564;SDS011;62994;52.126;5.596;2023-11-18T05:11:59;43.63;;;19.70;;
17564;SDS011;62994;52.126;5.596;2023-11-18T05:14:27;43.03;;;19.23;;
17564;SDS011;62994;52.126;5.596;2023-11-18T05:16:56;42.38;;;19.45;;
17564;SDS011;62994;52.126;5.596;2023-11-18T05:19:23;37.40;;;19.35;;
17564;SDS011;62994;52.126;5.596;2023-11-18T05:21:51;41.42;;;18.52;;
17564;SDS011;62994;52.126;5.596;2023-11-18T05:24:19;40.30;;;18.92;;
17564;SDS011;62994;52.126;5.596;2023-11-18T05:26:46;36.85;;;19.33;;
17564;SDS011;62994;52.126;5.596;2023-11-18T05:29:12;46.42;;;21.58;;
17564;SDS011;62994;52.126;5.596;2023-11-18T05:31:42;43.67;;;18.98;;
17564;SDS011;62994;52.126;5.596;2023-11-18T05:34:10;36.85;;;18.48;;
17564;SDS011;62994;52.126;5.596;2023-11-18T05:36:37;37.10;;;18.40;;
17564;SDS011;62994;52.126;5.596;2023-11-18T05:39:05;41.30;;;19.85;;
17564;SDS011;62994;52.126;5.596;2023-11-18T05:41:34;37.05;;;18.70;;
17564;SDS011;62994;52.126;5.596;2023-11-18T05:44:04;44.25;;;18.15;;
17564;SDS011;62994;52.126;5.596;2023-11-18T05:46:34;36.22;;;17.15;;
17564;SDS011;62994;52.126;5.596;2023-11-18T05:49:01;36.17;;;18.17;;
17564;SDS011;62994;52.126;5.596;2023-11-18T05:51:33;40.50;;;17.13;;
17564;SDS011;62994;52.126;5.596;2023-11-18T05:54:01;42.20;;;17.58;;
17564;SDS011;62994;52.126;5.596;2023-11-18T05:56:28;36.33;;;19.48;;
17564;SDS011;62994;52.126;5.596;2023-11-18T05:58:55;33.80;;;17.20;;
17564;SDS011;62994;52.126;5.596;2023-11-18T06:01:22;37.25;;;18.15;;
17564;SDS011;62994;52.126;5.596;2023-11-18T06:03:49;41.08;;;18.25;;
17564;SDS011;62994;52.126;5.596;2023-11-18T06:06:16;34.03;;;17.15;;
17564;SDS011;62994;52.126;5.596;2023-11-18T06:08:44;35.45;;;18.67;;
17564;SDS011;62994;52.126;5.596;2023-11-18T06:11:13;34.72;;;16.90;;
17564;SDS011;62994;52.126;5.596;2023-11-18T06:13:41;32.20;;;15.82;;
17564;SDS011;62994;52.126;5.596;2023-11-18T06:16:09;35.40;;;16.45;;
17564;SDS011;62994;52.126;5.596;2023-11-18T06:18:40;34.35;;;16.63;;
17564;SDS011;62994;52.126;5.596;2023-11-18T06:21:10;26.38;;;15.75;;
17564;SDS011;62994;52.126;5.596;2023-11-18T06:23:38;32.10;;;17.48;;
17564;SDS011;62994;52.126;5.596;2023-11-18T06:26:06;32.28;;;15.60;;
17564;SDS011;62994;52.126;5.596;2023-11-18T06:28:35;31.27;;;16.13;;
17564;SDS011;62994;52.126;5.596;2023-11-18T06:31:03;35.28;;;16.35;;
17564;SDS011;62994;52.126;5.596;2023-11-18T06:33:35;30.73;;;15.63;;
17564;SDS011;62994;52.126;5.596;2023-11-18T06:38:32;25.98;;;14.30;;
17564;SDS011;62994;52.126;5.596;2023-11-18T06:40:59;26.75;;;15.75;;
17564;SDS011;62994;52.126;5.596;2023-11-18T06:43:29;28.23;;;16.75;;
17564;SDS011;62994;52.126;5.596;2023-11-18T06:46:07;28.42;;;15.63;;
17564;SDS011;62994;52.126;5.596;2023-11-18T06:48:35;26.83;;;15.43;;
17564;SDS011;62994;52.126;5.596;2023-11-18T06:51:03;28.23;;;14.80;;
17564;SDS011;62994;52.126;5.596;2023-11-18T06:53:33;34.88;;;17.50;;
17564;SDS011;62994;52.126;5.596;2023-11-18T06:56:00;30.63;;;15.07;;
17564;SDS011;62994;52.126;5.596;2023-11-18T06:58:27;34.53;;;17.17;;
17564;SDS011;62994;52.126;5.596;2023-11-18T07:00:55;25.25;;;14.35;;
17564;SDS011;62994;52.126;5.596;2023-11-18T07:03:22;29.33;;;14.45;;
17564;SDS011;62994;52.126;5.596;2023-11-18T07:05:49;25.35;;;13.73;;
17564;SDS011;62994;52.126;5.596;2023-11-18T07:08:16;32.35;;;15.73;;
17564;SDS011;62994;52.126;5.596;2023-11-18T07:10:43;29.50;;;15.50;;
17564;SDS011;62994;52.126;5.596;2023-11-18T07:13:11;26.73;;;14.80;;
17564;SDS011;62994;52.126;5.596;2023-11-18T07:15:38;31.45;;;15.75;;
17564;SDS011;62994;52.126;5.596;2023-11-18T07:18:07;27.05;;;16.02;;
17564;SDS011;62994;52.126;5.596;2023-11-18T07:20:38;23.15;;;14.32;;
17564;SDS011;62994;52.126;5.596;2023-11-18T07:23:05;23.35;;;15.52;;
17564;SDS011;62994;52.126;5.596;2023-11-18T07:25:33;25.88;;;15.52;;
17564;SDS011;62994;52.126;5.596;2023-11-18T07:28:00;26.15;;;13.88;;
17564;SDS011;62994;52.126;5.596;2023-11-18T07:30:27;26.40;;;14.07;;
17564;SDS011;62994;52.126;5.596;2023-11-18T07:32:55;30.17;;;14.75;;
17564;SDS011;62994;52.126;5.596;2023-11-18T07:35:27;27.90;;;16.20;;
17564;SDS011;62994;52.126;5.596;2023-11-18T07:37:54;32.83;;;18.55;;
17564;SDS011;62994;52.126;5.596;2023-11-18T07:40:21;28.42;;;20.05;;
17564;SDS011;62994;52.126;5.596;2023-11-18T07:42:53;24.45;;;15.88;;
17564;SDS011;62994;52.126;5.596;2023-11-18T07:45:20;32.88;;;18.23;;
17564;SDS011;62994;52.126;5.596;2023-11-18T07:47:48;36.25;;;20.75;;
17564;SDS011;62994;52.126;5.596;2023-11-18T07:50:16;37.75;;;21.65;;
17564;SDS011;62994;52.126;5.596;2023-11-18T07:52:46;33.70;;;18.35;;
17564;SDS011;62994;52.126;5.596;2023-11-18T07:55:13;26.48;;;15.95;;
17564;SDS011;62994;52.126;5.596;2023-11-18T07:57:40;27.10;;;15.07;;
17564;SDS011;62994;52.126;5.596;2023-11-18T08:00:08;26.70;;;14.95;;
17564;SDS011;62994;52.126;5.596;2023-11-18T08:02:36;26.65;;;15.48;;
17564;SDS011;62994;52.126;5.596;2023-11-18T08:05:04;26.60;;;14.00;;
17564;SDS011;62994;52.126;5.596;2023-11-18T08:07:33;20.58;;;13.18;;
17564;SDS011;62994;52.126;5.596;2023-11-18T08:10:02;22.58;;;15.18;;
17564;SDS011;62994;52.126;5.596;2023-11-18T08:12:30;25.00;;;15.48;;
17564;SDS011;62994;52.126;5.596;2023-11-18T08:14:57;21.73;;;14.00;;
17564;SDS011;62994;52.126;5.596;2023-11-18T08:17:24;19.80;;;12.70;;
17564;SDS011;62994;52.126;5.596;2023-11-18T08:19:51;20.13;;;12.15;;
17564;SDS011;62994;52.126;5.596;2023-11-18T08:22:18;21.23;;;12.65;;
17564;SDS011;62994;52.126;5.596;2023-11-18T08:24:48;25.17;;;15.02;;
17564;SDS011;62994;52.126;5.596;2023-11-18T08:27:19;22.10;;;12.93;;
17564;SDS011;62994;52.126;5.596;2023-11-18T08:29:46;22.05;;;12.70;;
17564;SDS011;62994;52.126;5.596;2023-11-18T08:32:14;17.50;;;13.50;;
17564;SDS011;62994;52.126;5.596;2023-11-18T08:34:41;26.42;;;14.18;;
17564;SDS011;62994;52.126;5.596;2023-11-18T08:37:08;22.13;;;13.60;;
17564;SDS011;62994;52.126;5.596;2023-11-18T08:39:38;17.75;;;12.73;;
17564;SDS011;62994;52.126;5.596;2023-11-18T08:42:10;17.50;;;12.55;;
17564;SDS011;62994;52.126;5.596;2023-11-18T08:44:41;19.48;;;12.57;;
17564;SDS011;62994;52.126;5.596;2023-11-18T08:47:08;20.38;;;12.02;;
17564;SDS011;62994;52.126;5.596;2023-11-18T08:49:42;21.00;;;12.10;;
17564;SDS011;62994;52.126;5.596;2023-11-18T08:52:11;23.85;;;11.77;;
17564;SDS011;62994;52.126;5.596;2023-11-18T08:54:38;15.35;;;10.48;;
17564;SDS011;62994;52.126;5.596;2023-11-18T08:57:25;17.75;;;10.77;;
17564;SDS011;62994;52.126;5.596;2023-11-18T08:59:54;15.93;;;10.95;;
17564;SDS011;62994;52.126;5.596;2023-11-18T09:02:24;16.90;;;11.02;;
17564;SDS011;62994;52.126;5.596;2023-11-18T09:04:54;18.52;;;10.85;;
17564;SDS011;62994;52.126;5.596;2023-11-18T09:07:23;23.45;;;10.63;;
17564;SDS011;62994;52.126;5.596;2023-11-18T09:09:51;17.05;;;10.30;;
17564;SDS011;62994;52.126;5.596;2023-11-18T09:12:18;16.25;;;9.48;;
17564;SDS011;62994;52.126;5.596;2023-11-18T09:14:45;17.83;;;10.02;;
17564;SDS011;62994;52.126;5.596;2023-11-18T09:17:14;14.85;;;10.32;;
17564;SDS011;62994;52.126;5.596;2023-11-18T09:19:41;20.77;;;10.35;;
17564;SDS011;62994;52.126;5.596;2023-11-18T09:22:09;14.23;;;10.48;;
17564;SDS011;62994;52.126;5.596;2023-11-18T09:24:38;11.55;;;8.88;;
17564;SDS011;62994;52.126;5.596;2023-11-18T09:27:05;20.33;;;9.70;;
17564;SDS011;62994;52.126;5.596;2023-11-18T09:29:34;15.57;;;11.80;;
17564;SDS011;62994;52.126;5.596;2023-11-18T09:32:01;55.67;;;37.88;;
17564;SDS011;62994;52.126;5.596;2023-11-18T09:34:32;21.73;;;18.13;;
17564;SDS011;62994;52.126;5.596;2023-11-18T09:36:59;13.32;;;10.70;;
17564;SDS011;62994;52.126;5.596;2023-11-18T09:39:26;14.00;;;11.02;;
17564;SDS011;62994;52.126;5.596;2023-11-18T09:42:03;14.77;;;13.10;;
17564;SDS011;62994;52.126;5.596;2023-11-18T09:44:39;22.30;;;11.68;;
17564;SDS011;62994;52.126;5.596;2023-11-18T09:47:07;13.02;;;11.60;;
17564;SDS011;62994;52.126;5.596;2023-11-18T09:49:40;13.95;;;10.45;;
17564;SDS011;62994;52.126;5.596;2023-11-18T09:52:13;15.00;;;11.00;;
17564;SDS011;62994;52.126;5.596;2023-11-18T09:54:45;13.95;;;9.70;;
17564;SDS011;62994;52.126;5.596;2023-11-18T09:57:26;16.20;;;8.90;;
17564;SDS011;62994;52.126;5.596;2023-11-18T10:00:01;13.88;;;8.73;;
17564;SDS011;62994;52.126;5.596;2023-11-18T10:02:45;11.18;;;8.45;;
17564;SDS011;62994;52.126;5.596;2023-11-18T10:05:16;14.40;;;8.68;;
17564;SDS011;62994;52.126;5.596;2023-11-18T10:07:46;9.02;;;7.80;;
17564;SDS011;62994;52.126;5.596;2023-11-18T10:10:13;10.68;;;7.43;;
17564;SDS011;62994;52.126;5.596;2023-11-18T10:12:41;13.85;;;8.27;;
17564;SDS011;62994;52.126;5.596;2023-11-18T10:15:17;12.20;;;7.90;;
17564;SDS011;62994;52.126;5.596;2023-11-18T10:17:48;11.18;;;8.75;;
17564;SDS011;62994;52.126;5.596;2023-11-18T10:20:23;12.18;;;9.32;;
17564;SDS011;62994;52.126;5.596;2023-11-18T10:23:11;9.10;;;8.02;;
17564;SDS011;62994;52.126;5.596;2023-11-18T10:25:50;13.75;;;8.60;;
17564;SDS011;62994;52.126;5.596;2023-11-18T10:28:22;9.38;;;7.47;;
17564;SDS011;62994;52.126;5.596;2023-11-18T10:30:49;15.98;;;9.75;;
17564;SDS011;62994;52.126;5.596;2023-11-18T10:33:16;15.55;;;11.93;;
17564;SDS011;62994;52.126;5.596;2023-11-18T10:35:51;15.70;;;10.23;;
17564;SDS011;62994;52.126;5.596;2023-11-18T10:38:20;11.02;;;9.00;;
17564;SDS011;62994;52.126;5.596;2023-11-18T10:40:50;9.43;;;8.23;;
17564;SDS011;62994;52.126;5.596;2023-11-18T10:43:20;10.32;;;7.47;;
17564;SDS011;62994;52.126;5.596;2023-11-18T10:45:49;11.80;;;7.97;;
17564;SDS011;62994;52.126;5.596;2023-11-18T10:48:17;9.50;;;8.43;;
17564;SDS011;62994;52.126;5.596;2023-11-18T10:50:46;8.82;;;7.63;;
17564;SDS011;62994;52.126;5.596;2023-11-18T10:53:16;10.93;;;7.10;;
17564;SDS011;62994;52.126;5.596;2023-11-18T10:55:44;9.52;;;7.75;;
17564;SDS011;62994;52.126;5.596;2023-11-18T10:58:16;14.38;;;8.00;;
17564;SDS011;62994;52.126;5.596;2023-11-18T11:00:48;10.00;;;7.45;;
17564;SDS011;62994;52.126;5.596;2023-11-18T11:03:20;12.20;;;8.18;;
17564;SDS011;62994;52.126;5.596;2023-11-18T11:05:49;9.00;;;7.88;;
17564;SDS011;62994;52.126;5.596;2023-11-18T11:08:18;8.23;;;7.38;;
17564;SDS011;62994;52.126;5.596;2023-11-18T11:10:46;11.25;;;8.05;;
17564;SDS011;62994;52.126;5.596;2023-11-18T11:13:14;12.55;;;8.02;;
17564;SDS011;62994;52.126;5.596;2023-11-18T11:15:44;12.35;;;7.15;;
17564;SDS011;62994;52.126;5.596;2023-11-18T11:18:19;11.88;;;7.47;;
17564;SDS011;62994;52.126;5.596;2023-11-18T11:20:54;13.70;;;7.50;;
17564;SDS011;62994;52.126;5.596;2023-11-18T11:23:38;8.90;;;7.13;;
17564;SDS011;62994;52.126;5.596;2023-11-18T11:26:23;9.10;;;6.90;;
17564;SDS011;62994;52.126;5.596;2023-11-18T11:28:58;21.08;;;7.13;;
17564;SDS011;62994;52.126;5.596;2023-11-18T11:31:31;8.52;;;6.93;;
17564;SDS011;62994;52.126;5.596;2023-11-18T11:34:04;11.18;;;7.43;;
17564;SDS011;62994;52.126;5.596;2023-11-18T11:36:35;11.27;;;7.57;;
17564;SDS011;62994;52.126;5.596;2023-11-18T11:39:08;10.70;;;7.00;;
17564;SDS011;62994;52.126;5.596;2023-11-18T11:41:40;9.23;;;6.82;;
17564;SDS011;62994;52.126;5.596;2023-11-18T11:44:11;8.40;;;7.00;;
17564;SDS011;62994;52.126;5.596;2023-11-18T11:46:39;8.93;;;8.02;;
17564;SDS011;62994;52.126;5.596;2023-11-18T11:49:08;12.07;;;7.25;;
17564;SDS011;62994;52.126;5.596;2023-11-18T11:51:44;13.52;;;7.20;;
17564;SDS011;62994;52.126;5.596;2023-11-18T11:54:18;9.98;;;7.35;;
17564;SDS011;62994;52.126;5.596;2023-11-18T11:56:47;9.00;;;7.28;;
17564;SDS011;62994;52.126;5.596;2023-11-18T11:59:22;10.90;;;7.15;;
17564;SDS011;62994;52.126;5.596;2023-11-18T12:02:02;13.45;;;7.00;;
17564;SDS011;62994;52.126;5.596;2023-11-18T12:04:32;11.35;;;7.20;;
17564;SDS011;62994;52.126;5.596;2023-11-18T12:07:03;10.85;;;7.13;;
17564;SDS011;62994;52.126;5.596;2023-11-18T12:09:32;8.40;;;7.07;;
17564;SDS011;62994;52.126;5.596;2023-11-18T12:12:03;8.40;;;6.20;;
17564;SDS011;62994;52.126;5.596;2023-11-18T12:14:48;12.35;;;6.70;;
17564;SDS011;62994;52.126;5.596;2023-11-18T12:17:27;7.05;;;6.35;;
17564;SDS011;62994;52.126;5.596;2023-11-18T12:19:57;9.68;;;6.45;;
17564;SDS011;62994;52.126;5.596;2023-11-18T12:25:34;7.05;;;6.22;;
17564;SDS011;62994;52.126;5.596;2023-11-18T12:28:08;6.85;;;5.47;;
17564;SDS011;62994;52.126;5.596;2023-11-18T12:30:39;11.25;;;6.28;;
17564;SDS011;62994;52.126;5.596;2023-11-18T12:33:19;11.95;;;6.55;;
17564;SDS011;62994;52.126;5.596;2023-11-18T12:39:01;7.25;;;5.65;;
17564;SDS011;62994;52.126;5.596;2023-11-18T12:42:02;5.22;;;4.72;;
17564;SDS011;62994;52.126;5.596;2023-11-18T12:44:37;7.22;;;5.50;;
17564;SDS011;62994;52.126;5.596;2023-11-18T12:47:06;10.30;;;7.38;;
17564;SDS011;62994;52.126;5.596;2023-11-18T12:49:41;7.03;;;5.38;;
17564;SDS011;62994;52.126;5.596;2023-11-18T12:52:08;6.32;;;5.15;;
17564;SDS011;62994;52.126;5.596;2023-11-18T12:54:40;7.88;;;5.57;;
17564;SDS011;62994;52.126;5.596;2023-11-18T12:57:15;8.77;;;5.13;;
17564;SDS011;62994;52.126;5.596;2023-11-18T12:59:48;6.93;;;5.65;;
17564;SDS011;62994;52.126;5.596;2023-11-18T13:02:15;5.18;;;4.68;;
17564;SDS011;62994;52.126;5.596;2023-11-18T13:04:46;6.47;;;4.85;;
17564;SDS011;62994;52.126;5.596;2023-11-18T13:07:24;6.18;;;5.30;;
17564;SDS011;62994;52.126;5.596;2023-11-18T13:09:51;9.00;;;5.07;;
17564;SDS011;62994;52.126;5.596;2023-11-18T13:12:19;6.43;;;5.15;;
17564;SDS011;62994;52.126;5.596;2023-11-18T13:14:54;5.45;;;4.20;;
17564;SDS011;62994;52.126;5.596;2023-11-18T13:17:21;6.22;;;4.75;;
17564;SDS011;62994;52.126;5.596;2023-11-18T13:20:05;7.80;;;4.55;;
17564;SDS011;62994;52.126;5.596;2023-11-18T13:22:39;5.07;;;4.68;;
17564;SDS011;62994;52.126;5.596;2023-11-18T13:25:08;4.88;;;4.47;;
17564;SDS011;62994;52.126;5.596;2023-11-18T13:27:35;4.63;;;4.32;;
17564;SDS011;62994;52.126;5.596;2023-11-18T13:30:04;4.55;;;4.07;;
17564;SDS011;62994;52.126;5.596;2023-11-18T13:32:37;6.82;;;4.45;;
17564;SDS011;62994;52.126;5.596;2023-11-18T13:35:08;5.32;;;4.20;;
17564;SDS011;62994;52.126;5.596;2023-11-18T13:37:38;7.47;;;3.97;;
17564;SDS011;62994;52.126;5.596;2023-11-18T13:40:07;4.32;;;3.92;;
17564;SDS011;62994;52.126;5.596;2023-11-18T13:42:34;4.28;;;3.72;;
17564;SDS011;62994;52.126;5.596;2023-11-18T13:45:04;4.07;;;3.67;;
17564;SDS011;62994;52.126;5.596;2023-11-18T13:47:48;6.88;;;3.60;;
17564;SDS011;62994;52.126;5.596;2023-11-18T13:50:17;4.20;;;3.90;;
17564;SDS011;62994;52.126;5.596;2023-11-18T13:52:51;5.82;;;3.97;;
17564;SDS011;62994;52.126;5.596;2023-11-18T13:55:18;5.53;;;3.88;;
17564;SDS011;62994;52.126;5.596;2023-11-18T13:57:52;6.07;;;4.45;;
17564;SDS011;62994;52.126;5.596;2023-11-18T14:00:22;4.25;;;3.63;;
17564;SDS011;62994;52.126;5.596;2023-11-18T14:02:52;5.05;;;3.47;;
17564;SDS011;62994;52.126;5.596;2023-11-18T14:05:23;4.30;;;3.70;;
17564;SDS011;62994;52.126;5.596;2023-11-18T14:07:51;3.28;;;3.08;;
17564;SDS011;62994;52.126;5.596;2023-11-18T14:10:21;3.70;;;3.47;;
17564;SDS011;62994;52.126;5.596;2023-11-18T14:13:00;6.00;;;3.10;;
17564;SDS011;62994;52.126;5.596;2023-11-18T14:15:28;3.30;;;3.10;;
17564;SDS011;62994;52.126;5.596;2023-11-18T14:17:56;3.35;;;3.15;;
17564;SDS011;62994;52.126;5.596;2023-11-18T14:20:24;2.95;;;2.75;;
17564;SDS011;62994;52.126;5.596;2023-11-18T14:22:51;2.85;;;2.65;;
17564;SDS011;62994;52.126;5.596;2023-11-18T14:25:19;3.35;;;2.72;;
17564;SDS011;62994;52.126;5.596;2023-11-18T14:27:48;2.85;;;2.65;;
17564;SDS011;62994;52.126;5.596;2023-11-18T14:30:20;2.60;;;2.50;;
17564;SDS011;62994;52.126;5.596;2023-11-18T14:32:49;2.20;;;2.10;;
17564;SDS011;62994;52.126;5.596;2023-11-18T14:35:16;2.40;;;2.30;;
17564;SDS011;62994;52.126;5.596;2023-11-18T14:37:45;2.63;;;2.42;;
17564;SDS011;62994;52.126;5.596;2023-11-18T14:40:12;3.65;;;2.63;;
17564;SDS011;62994;52.126;5.596;2023-11-18T14:42:41;2.33;;;2.08;;
17564;SDS011;62994;52.126;5.596;2023-11-18T14:45:10;2.33;;;2.20;;
17564;SDS011;62994;52.126;5.596;2023-11-18T14:47:44;3.15;;;2.38;;
17564;SDS011;62994;52.126;5.596;2023-11-18T14:50:14;2.90;;;2.53;;